Curtice, Ohio
Current Conditions -  °F | °C
As of 3:53 AM on Friday 24 Oct 2014 (Local Time) from KTDZ Reporting Station
Clear Clear  
Wind Chill: 40°   Ceiling: Unl
Heat Index: 40°   Visibility: 7mi
Dew Point: 36°   Wind: 3mph
Humidity: 86%   Direction: 200°SSW
Pressure: 30.1"   Gusts: NA
Location:  41.62°N, 83.37°W
Report Text: KTDZ 240753Z AUTO 20003KT 7SM CLR 04/02 A3010 RMK AO2 SLP195 T00440022 TSNO
Loading
Personal Weather Stations






























Interactive Weather Map
Tropical Storm Tracking
New forecast layout! Learn more

10-Day Weather Forecast

Advertisements
Track Severe Weather on mobile